createdAt,value
2017-06-24T00:01:14.862Z,12.00
2017-06-24T00:03:42.373Z,13.30
2017-06-24T00:06:09.878Z,13.33
2017-06-24T00:08:37.679Z,13.30
2017-06-24T00:11:05.199Z,12.80
2017-06-24T00:13:32.703Z,13.70
2017-06-24T00:16:00.503Z,12.63
2017-06-24T00:18:28.015Z,13.63
2017-06-24T00:20:55.531Z,12.40
2017-06-24T00:23:23.107Z,12.47
2017-06-24T00:25:50.667Z,12.20
2017-06-24T00:28:18.443Z,11.73
2017-06-24T00:30:46.346Z,14.23
2017-06-24T00:33:13.875Z,12.00
2017-06-24T00:35:41.403Z,11.90
2017-06-24T00:38:09.343Z,13.27
2017-06-24T00:40:36.928Z,14.57
2017-06-24T00:43:04.479Z,15.23
2017-06-24T00:45:32.096Z,15.33
2017-06-24T00:47:59.599Z,14.37
2017-06-24T00:50:27.191Z,16.17
2017-06-24T00:52:54.792Z,15.77
2017-06-24T00:55:22.315Z,15.97
2017-06-24T00:57:49.827Z,15.40
2017-06-24T01:00:17.543Z,15.17
2017-06-24T01:02:45.054Z,12.80
2017-06-24T01:05:12.568Z,14.00
2017-06-24T01:07:40.170Z,13.90
2017-06-24T01:10:07.831Z,14.60
2017-06-24T01:12:35.395Z,13.80
2017-06-24T01:15:03.223Z,14.80
2017-06-24T01:17:30.731Z,18.93
2017-06-24T01:19:58.243Z,16.07
2017-06-24T01:22:25.872Z,15.10
2017-06-24T01:24:53.386Z,14.90
2017-06-24T01:27:20.898Z,14.40
2017-06-24T01:29:48.597Z,13.77
2017-06-24T01:32:16.107Z,13.70
2017-06-24T01:34:43.778Z,14.43
2017-06-24T01:37:11.626Z,14.57
2017-06-24T01:39:39.229Z,14.20
2017-06-24T01:42:06.737Z,12.77
2017-06-24T01:44:34.666Z,12.73
2017-06-24T01:47:02.226Z,11.93
2017-06-24T01:49:29.870Z,13.10
2017-06-24T01:51:57.448Z,11.93
2017-06-24T01:54:25.139Z,11.30
2017-06-24T01:56:52.696Z,12.27
2017-06-24T01:59:20.276Z,12.43
2017-06-24T02:01:47.787Z,11.13
2017-06-24T02:04:15.343Z,12.37
2017-06-24T02:06:42.932Z,11.47
2017-06-24T02:09:10.459Z,11.37
2017-06-24T02:11:37.979Z,12.20
2017-06-24T02:14:05.839Z,11.70
2017-06-24T02:16:33.373Z,12.57
2017-06-24T02:19:01.044Z,12.73
2017-06-24T02:21:28.615Z,10.70
2017-06-24T02:23:56.162Z,12.00
2017-06-24T02:26:23.679Z,12.70
2017-06-24T02:28:51.302Z,13.37
2017-06-24T02:31:18.843Z,13.10
2017-06-24T02:33:46.355Z,12.33
2017-06-24T02:36:14.159Z,12.90
2017-06-24T02:38:41.667Z,12.97
2017-06-24T02:41:09.173Z,12.90
2017-06-24T02:43:37.003Z,12.97
2017-06-24T02:46:04.669Z,13.73
2017-06-24T02:48:32.231Z,12.30
2017-06-24T02:50:59.840Z,12.50
2017-06-24T02:53:27.456Z,12.60
2017-06-24T02:55:54.989Z,13.40
2017-06-24T02:58:22.567Z,12.60
2017-06-24T03:00:50.081Z,13.37
2017-06-24T03:03:17.668Z,13.20
2017-06-24T03:05:45.227Z,13.60
2017-06-24T03:08:12.951Z,13.30
2017-06-24T03:10:40.524Z,13.67
2017-06-24T03:13:08.364Z,14.33
2017-06-24T03:15:35.867Z,12.90
2017-06-24T03:18:03.463Z,14.67
2017-06-24T03:20:31.028Z,14.73
2017-06-24T03:22:58.568Z,14.00
2017-06-24T03:25:26.103Z,14.50
2017-06-24T03:27:53.657Z,12.80
2017-06-24T03:30:21.163Z,14.03
2017-06-24T03:32:48.683Z,14.43
2017-06-24T03:35:16.702Z,13.67
2017-06-24T03:37:44.231Z,12.60
2017-06-24T03:40:11.743Z,14.17
2017-06-24T03:42:39.310Z,14.60
2017-06-24T03:45:07.273Z,15.40
2017-06-24T03:47:34.819Z,14.00
2017-06-24T03:50:02.643Z,14.17
2017-06-24T03:52:30.146Z,14.83
2017-06-24T03:54:57.651Z,15.37
2017-06-24T03:57:25.470Z,13.97
2017-06-24T03:59:52.984Z,14.13
2017-06-24T04:02:20.503Z,15.40
2017-06-24T04:04:48.543Z,16.10
2017-06-24T04:07:16.092Z,15.87
2017-06-24T04:09:43.612Z,14.83
2017-06-24T04:12:11.184Z,15.77
2017-06-24T04:14:38.691Z,15.20
2017-06-24T04:17:06.239Z,15.00
2017-06-24T04:19:34.240Z,15.43
2017-06-24T04:22:01.747Z,14.60
2017-06-24T04:24:29.274Z,15.83
2017-06-24T04:26:56.841Z,13.80
2017-06-24T04:29:24.414Z,15.17
2017-06-24T04:31:51.915Z,14.03
2017-06-24T04:34:19.752Z,14.83
2017-06-24T04:36:47.311Z,14.20
2017-06-24T04:39:15.404Z,15.20
2017-06-24T04:41:43.217Z,14.50
2017-06-24T04:44:10.827Z,14.40
2017-06-24T04:46:38.341Z,14.67
2017-06-24T04:49:05.979Z,14.60
2017-06-24T04:51:33.483Z,14.23
2017-06-24T04:54:00.992Z,15.30
2017-06-24T04:56:28.845Z,15.60
2017-06-24T04:58:56.391Z,14.37
2017-06-24T05:01:23.899Z,14.53
2017-06-24T05:03:51.484Z,15.30
2017-06-24T05:06:18.995Z,13.30
2017-06-24T05:08:46.499Z,14.73
2017-06-24T05:11:14.111Z,15.60
2017-06-24T05:13:42.282Z,14.77
2017-06-24T05:16:09.844Z,14.33
2017-06-24T05:18:37.404Z,14.10
2017-06-24T05:21:05.791Z,13.70
2017-06-24T05:23:33.411Z,13.53
2017-06-24T05:26:00.940Z,13.93
2017-06-24T05:28:28.775Z,11.43
2017-06-24T05:30:56.287Z,12.40
2017-06-24T05:33:23.793Z,10.10
2017-06-24T05:35:52.512Z,9.23
2017-06-24T05:38:20.033Z,9.53
2017-06-24T05:40:47.579Z,9.17
2017-06-24T05:43:15.203Z,9.77
2017-06-24T05:45:42.715Z,10.17
2017-06-24T05:48:10.219Z,10.70
2017-06-24T05:50:38.032Z,9.27
2017-06-24T05:53:05.565Z,10.77
2017-06-24T05:55:33.070Z,10.77
2017-06-24T05:58:00.878Z,10.27
2017-06-24T06:00:28.389Z,10.93
2017-06-24T06:02:55.995Z,10.30
2017-06-24T06:05:23.547Z,10.47
2017-06-24T06:07:51.067Z,9.97
2017-06-24T06:10:18.574Z,10.67
2017-06-24T06:12:46.477Z,11.73
2017-06-24T06:15:15.135Z,9.27
2017-06-24T06:17:42.646Z,11.40
2017-06-24T06:20:10.348Z,12.20
2017-06-24T06:22:37.862Z,10.30
2017-06-24T06:25:05.575Z,10.73
2017-06-24T06:27:33.376Z,10.80
2017-06-24T06:30:00.912Z,10.90
2017-06-24T06:32:28.423Z,9.17
2017-06-24T06:34:56.296Z,10.50
2017-06-24T06:37:23.798Z,9.50
2017-06-24T06:39:51.320Z,9.77
2017-06-24T06:42:19.177Z,10.07
2017-06-24T06:44:46.736Z,9.57
2017-06-24T06:47:14.403Z,9.50
2017-06-24T06:49:42.407Z,9.90
2017-06-24T06:52:10.261Z,9.37
2017-06-24T06:54:37.855Z,9.60
2017-06-24T06:57:05.862Z,8.80
2017-06-24T06:59:33.819Z,9.80
2017-06-24T07:02:01.837Z,9.30
2017-06-24T07:04:29.887Z,8.50
2017-06-24T07:06:57.605Z,8.83
2017-06-24T07:09:25.223Z,9.07
2017-06-24T07:11:52.763Z,8.97
2017-06-24T07:14:20.279Z,7.97
2017-06-24T07:16:47.846Z,9.33
2017-06-24T07:19:15.423Z,8.60
2017-06-24T07:21:42.986Z,8.50
2017-06-24T07:24:10.495Z,8.83
2017-06-24T07:26:38.051Z,8.97
2017-06-24T07:29:05.562Z,8.80
2017-06-24T07:31:33.140Z,7.30
2017-06-24T07:34:00.954Z,8.67
2017-06-24T07:36:28.543Z,8.50
2017-06-24T07:38:56.097Z,8.30
2017-06-24T07:41:23.604Z,8.57
2017-06-24T07:43:51.400Z,8.87
2017-06-24T07:46:19.123Z,8.40
2017-06-24T07:48:46.656Z,8.67
2017-06-24T07:51:14.207Z,9.83
2017-06-24T07:53:41.715Z,9.93
2017-06-24T07:56:09.219Z,8.47
2017-06-24T07:58:36.826Z,8.50
2017-06-24T08:01:04.341Z,8.93
2017-06-24T08:03:31.861Z,8.87
2017-06-24T08:05:59.656Z,8.83
2017-06-24T08:08:27.191Z,8.73
2017-06-24T08:10:54.700Z,8.57
2017-06-24T08:13:22.507Z,8.53
2017-06-24T08:15:50.188Z,9.07
2017-06-24T08:18:17.741Z,7.43
2017-06-24T08:20:45.407Z,8.93
2017-06-24T08:23:12.908Z,8.70
2017-06-24T08:25:40.512Z,8.90
2017-06-24T08:28:08.133Z,9.40
2017-06-24T08:30:35.769Z,9.53
2017-06-24T08:33:03.284Z,9.03
2017-06-24T08:35:31.129Z,8.57
2017-06-24T08:37:58.643Z,8.80
2017-06-24T08:40:26.167Z,8.80
2017-06-24T08:42:53.972Z,8.30
2017-06-24T08:45:21.478Z,9.23
2017-06-24T08:47:48.995Z,9.67
2017-06-24T08:50:16.619Z,8.77
2017-06-24T08:52:45.356Z,7.77
2017-06-24T08:55:13.206Z,8.50
2017-06-24T08:57:41.714Z,7.60
2017-06-24T09:00:09.864Z,7.87
2017-06-24T09:02:37.537Z,7.33
2017-06-24T09:05:05.074Z,7.13
2017-06-24T09:07:33.189Z,7.17
2017-06-24T09:10:00.587Z,7.60
2017-06-24T09:12:28.703Z,7.40
2017-06-24T09:14:56.235Z,7.93
2017-06-24T09:17:24.663Z,7.17
2017-06-24T09:19:52.328Z,7.73
2017-06-24T09:22:19.891Z,7.10
2017-06-24T09:24:47.699Z,7.30
2017-06-24T09:27:15.608Z,6.80
2017-06-24T09:29:43.128Z,7.07
2017-06-24T09:32:10.833Z,7.20
2017-06-24T09:34:38.389Z,7.33
2017-06-24T09:37:05.918Z,7.20
2017-06-24T09:39:33.573Z,7.37
2017-06-24T09:42:01.104Z,7.77
2017-06-24T09:44:28.607Z,6.37
2017-06-24T09:46:56.251Z,7.47
2017-06-24T09:49:23.757Z,6.57
2017-06-24T09:51:51.298Z,7.63
2017-06-24T09:54:19.245Z,7.43
2017-06-24T09:56:46.791Z,7.53
2017-06-24T09:59:14.296Z,7.20
2017-06-24T10:01:41.863Z,6.67
2017-06-24T10:04:09.411Z,8.07
2017-06-24T10:06:36.914Z,7.50
2017-06-24T10:09:04.511Z,7.20
2017-06-24T10:11:32.186Z,7.40
2017-06-24T10:13:59.710Z,7.90
2017-06-24T10:16:27.751Z,7.70
2017-06-24T10:18:55.344Z,7.13
2017-06-24T10:21:22.847Z,7.33
2017-06-24T10:23:50.415Z,7.23
2017-06-24T10:26:17.951Z,8.43
2017-06-24T10:28:45.468Z,8.47
2017-06-24T10:31:13.279Z,7.20
2017-06-24T10:33:40.775Z,7.60
2017-06-24T10:36:08.401Z,6.43
2017-06-24T10:38:35.956Z,7.53
2017-06-24T10:41:03.495Z,7.30
2017-06-24T10:43:31.002Z,6.90
2017-06-24T10:45:58.622Z,7.77
2017-06-24T10:48:26.242Z,7.90
2017-06-24T10:50:53.763Z,6.70
2017-06-24T10:53:21.567Z,8.10
2017-06-24T10:55:49.085Z,7.90
2017-06-24T10:58:16.587Z,7.27
2017-06-24T11:00:44.582Z,7.67
2017-06-24T11:03:12.371Z,7.10
2017-06-24T11:05:39.931Z,8.60
2017-06-24T11:08:07.831Z,7.47
2017-06-24T11:10:35.336Z,7.17
2017-06-24T11:13:02.939Z,8.77
2017-06-24T11:15:30.728Z,9.20
2017-06-24T11:17:58.243Z,8.90
2017-06-24T11:20:25.951Z,7.03
2017-06-24T11:22:53.519Z,8.93
2017-06-24T11:25:21.023Z,8.10
2017-06-24T11:27:48.530Z,7.90
2017-06-24T11:30:16.168Z,9.07
2017-06-24T11:32:43.682Z,7.40
2017-06-24T11:35:11.243Z,8.33
2017-06-24T11:37:38.827Z,8.27
2017-06-24T11:40:06.427Z,8.73
2017-06-24T11:42:33.943Z,9.77
2017-06-24T11:45:01.568Z,8.20
2017-06-24T11:47:29.085Z,9.33
2017-06-24T11:49:56.679Z,8.97
2017-06-24T11:52:24.252Z,9.87
2017-06-24T11:54:51.771Z,9.17
2017-06-24T11:57:19.395Z,9.87
2017-06-24T11:59:46.975Z,9.30
2017-06-24T12:02:14.508Z,8.27
2017-06-24T12:04:42.014Z,9.80
2017-06-24T12:07:09.817Z,8.90
2017-06-24T12:09:37.348Z,8.73
2017-06-24T12:12:04.988Z,10.10
2017-06-24T12:14:32.901Z,9.30
2017-06-24T12:17:00.420Z,9.60
2017-06-24T12:19:27.933Z,10.87
2017-06-24T12:21:55.630Z,10.97
2017-06-24T12:24:23.152Z,9.50
2017-06-24T12:26:50.659Z,9.30
2017-06-24T12:29:18.229Z,10.63
2017-06-24T12:31:45.739Z,9.97
2017-06-24T12:34:13.322Z,10.77
2017-06-24T12:36:40.905Z,10.90
2017-06-24T12:39:08.437Z,11.03
2017-06-24T12:41:36.007Z,10.27
2017-06-24T12:44:03.859Z,9.73
2017-06-24T12:46:32.338Z,9.97
2017-06-24T12:48:59.853Z,9.87
2017-06-24T12:51:27.411Z,10.00
2017-06-24T12:53:56.479Z,9.90
2017-06-24T12:56:24.444Z,10.10
2017-06-24T12:58:52.718Z,9.83
2017-06-24T13:01:20.368Z,10.10
2017-06-24T13:03:47.888Z,10.07
2017-06-24T13:06:15.448Z,10.00
2017-06-24T13:08:43.015Z,9.40
2017-06-24T13:11:10.554Z,9.90
2017-06-24T13:13:38.576Z,9.47
2017-06-24T13:16:06.419Z,10.27
2017-06-24T13:18:33.922Z,10.17
2017-06-24T13:21:01.474Z,9.50
2017-06-24T13:23:29.036Z,9.97
2017-06-24T13:25:56.595Z,9.53
2017-06-24T13:28:24.865Z,10.03
2017-06-24T13:30:52.476Z,9.80
2017-06-24T13:33:20.006Z,9.47
2017-06-24T13:35:47.580Z,10.13
2017-06-24T13:38:15.474Z,9.97
2017-06-24T13:40:43.011Z,10.40
2017-06-24T13:43:10.851Z,10.17
2017-06-24T13:45:39.405Z,9.73
2017-06-24T13:48:06.917Z,8.60
2017-06-24T13:50:34.445Z,9.23
2017-06-24T13:53:02.099Z,9.90
2017-06-24T13:55:29.679Z,9.63
2017-06-24T13:57:57.224Z,9.63
2017-06-24T14:00:24.786Z,9.60
2017-06-24T14:02:52.408Z,9.87
2017-06-24T14:05:19.936Z,9.30
2017-06-24T14:07:47.509Z,10.70
2017-06-24T14:10:15.012Z,9.33
2017-06-24T14:12:42.519Z,9.77
2017-06-24T14:15:10.127Z,8.70
2017-06-24T14:17:37.645Z,9.80
2017-06-24T14:20:05.163Z,9.90
2017-06-24T14:22:32.910Z,9.70
2017-06-24T14:25:00.447Z,9.03
2017-06-24T14:27:27.955Z,9.20
2017-06-24T14:29:55.763Z,9.67
2017-06-24T14:32:23.279Z,9.40
2017-06-24T14:34:50.818Z,10.40
2017-06-24T14:37:18.630Z,8.90
2017-06-24T14:39:46.139Z,8.57
2017-06-24T14:42:13.647Z,10.27
2017-06-24T14:44:41.559Z,9.60
2017-06-24T14:47:09.261Z,7.93
2017-06-24T14:49:36.768Z,8.53
2017-06-24T14:52:04.615Z,8.97
2017-06-24T14:54:32.175Z,7.67
2017-06-24T14:56:59.771Z,8.50
2017-06-24T14:59:27.333Z,8.40
2017-06-24T15:01:54.867Z,8.30
2017-06-24T15:04:22.376Z,8.13
2017-06-24T15:06:50.052Z,7.70
2017-06-24T15:09:17.593Z,8.53
2017-06-24T15:11:45.120Z,9.20
2017-06-24T15:14:12.791Z,8.47
2017-06-24T15:16:40.287Z,7.83
2017-06-24T15:19:07.787Z,7.00
2017-06-24T15:21:35.371Z,7.57
2017-06-24T15:24:02.921Z,7.00
2017-06-24T15:26:30.424Z,7.73
2017-06-24T15:28:58.063Z,8.63
2017-06-24T15:31:25.331Z,8.90
2017-06-24T15:33:52.838Z,7.60
2017-06-24T15:36:20.731Z,7.93
2017-06-24T15:38:48.986Z,7.73
2017-06-24T15:41:16.523Z,9.03
2017-06-24T15:43:44.259Z,8.30
2017-06-24T15:46:12.175Z,8.60
2017-06-24T15:48:40.063Z,8.70
2017-06-24T15:51:07.717Z,7.97
2017-06-24T15:53:35.373Z,7.30
2017-06-24T15:56:02.988Z,7.83
2017-06-24T15:58:30.639Z,8.40
2017-06-24T16:00:58.733Z,7.93
2017-06-24T16:03:26.331Z,9.90
2017-06-24T16:05:53.912Z,7.80
2017-06-24T16:08:21.608Z,7.93
2017-06-24T16:10:49.249Z,7.90
2017-06-24T16:13:17.286Z,8.67
2017-06-24T16:15:46.019Z,8.50
2017-06-24T16:18:13.535Z,8.70
2017-06-24T16:20:42.209Z,8.50
2017-06-24T16:23:09.811Z,8.90
2017-06-24T16:25:37.600Z,8.30
2017-06-24T16:28:05.217Z,7.90
2017-06-24T16:30:32.807Z,8.17
2017-06-24T16:33:00.463Z,8.03
2017-06-24T16:35:27.983Z,7.83
2017-06-24T16:37:55.710Z,9.03
2017-06-24T16:40:23.284Z,8.20
2017-06-24T16:42:50.795Z,8.83
2017-06-24T16:45:18.647Z,8.10
2017-06-24T16:47:46.155Z,13.00
2017-06-24T16:50:13.663Z,8.43
2017-06-24T16:52:41.575Z,8.60
2017-06-24T16:55:09.220Z,8.93
2017-06-24T16:57:36.739Z,7.57
2017-06-24T17:00:04.402Z,9.60
2017-06-24T17:02:31.911Z,8.13
2017-06-24T17:04:59.459Z,8.10
2017-06-24T17:07:27.347Z,7.13
2017-06-24T17:09:55.252Z,8.30
2017-06-24T17:12:22.763Z,7.70
2017-06-24T17:14:51.186Z,8.93
2017-06-24T17:17:18.800Z,7.73
2017-06-24T17:19:46.299Z,9.03
2017-06-24T17:22:15.250Z,8.93
2017-06-24T17:24:42.977Z,8.93
2017-06-24T17:27:10.503Z,7.93
2017-06-24T17:29:38.127Z,8.23
2017-06-24T17:32:05.635Z,9.00
2017-06-24T17:34:33.192Z,8.00
2017-06-24T17:37:01.027Z,7.63
2017-06-24T17:39:28.544Z,8.27
2017-06-24T17:41:56.059Z,11.73
2017-06-24T17:44:23.708Z,10.23
2017-06-24T17:46:51.231Z,8.20
2017-06-24T17:49:18.748Z,8.43
2017-06-24T17:51:46.312Z,8.27
2017-06-24T17:54:13.936Z,8.33
2017-06-24T17:56:41.499Z,8.77
2017-06-24T17:59:09.055Z,7.10
2017-06-24T18:01:36.592Z,7.67
2017-06-24T18:04:04.163Z,8.63
2017-06-24T18:06:32.027Z,7.77
2017-06-24T18:08:59.602Z,7.00
2017-06-24T18:11:27.131Z,8.90
2017-06-24T18:13:54.715Z,7.30
2017-06-24T18:16:22.288Z,7.80
2017-06-24T18:18:49.832Z,7.60
2017-06-24T18:21:18.091Z,7.60
2017-06-24T18:23:45.609Z,8.90
2017-06-24T18:26:13.149Z,8.60
2017-06-24T18:28:40.958Z,8.17
2017-06-24T18:31:08.722Z,8.10
2017-06-24T18:33:36.235Z,7.20
2017-06-24T18:36:04.498Z,7.27
2017-06-24T18:38:32.065Z,7.40
2017-06-24T18:41:00.336Z,8.50
2017-06-24T18:43:28.415Z,7.37
2017-06-24T18:45:56.033Z,7.97
2017-06-24T18:48:23.944Z,7.90
2017-06-24T18:50:51.467Z,8.97
2017-06-24T18:53:18.986Z,8.10
2017-06-24T18:55:46.596Z,7.93
2017-06-24T18:58:14.120Z,7.30
2017-06-24T19:00:41.669Z,7.43
2017-06-24T19:03:09.479Z,8.30
2017-06-24T19:05:36.991Z,7.20
2017-06-24T19:08:04.552Z,8.20
2017-06-24T19:10:32.476Z,7.17
2017-06-24T19:12:59.992Z,7.23
2017-06-24T19:15:27.567Z,7.37
2017-06-24T19:17:55.481Z,7.80
2017-06-24T19:20:23.527Z,9.10
2017-06-24T19:22:51.093Z,8.27
2017-06-24T19:25:18.663Z,7.33
2017-06-24T19:27:46.175Z,7.17
2017-06-24T19:30:13.793Z,7.73
2017-06-24T19:32:41.368Z,7.50
2017-06-24T19:35:08.920Z,8.30
2017-06-24T19:37:36.447Z,6.90
2017-06-24T19:40:04.056Z,7.30
2017-06-24T19:42:31.592Z,7.53
2017-06-24T19:44:59.107Z,6.87
2017-06-24T19:47:27.032Z,7.60
2017-06-24T19:49:54.730Z,7.57
2017-06-24T19:52:22.249Z,8.50
2017-06-24T19:54:49.844Z,8.37
2017-06-24T19:57:17.451Z,6.50
2017-06-24T19:59:44.973Z,6.77
2017-06-24T20:02:12.547Z,7.13
2017-06-24T20:04:40.057Z,7.57
2017-06-24T20:07:07.567Z,6.90
2017-06-24T20:09:35.199Z,7.30
2017-06-24T20:12:02.715Z,8.30
2017-06-24T20:14:30.254Z,7.20
2017-06-24T20:16:58.130Z,7.80
2017-06-24T20:19:25.731Z,8.47
2017-06-24T20:21:53.397Z,6.80
2017-06-24T20:24:20.924Z,7.70
2017-06-24T20:26:49.380Z,8.80
2017-06-24T20:29:16.955Z,9.30
2017-06-24T20:31:44.475Z,7.53
2017-06-24T20:34:12.503Z,9.43
2017-06-24T20:36:40.109Z,8.10
2017-06-24T20:39:07.616Z,8.90
2017-06-24T20:41:35.127Z,9.00
2017-06-24T20:44:02.688Z,8.13
2017-06-24T20:46:30.228Z,8.17
2017-06-24T20:48:58.176Z,9.50
2017-06-24T20:51:26.360Z,9.10
2017-06-24T20:53:53.950Z,8.00
2017-06-24T20:56:21.461Z,8.07
2017-06-24T20:58:50.242Z,9.33
2017-06-24T21:01:18.728Z,8.13
2017-06-24T21:03:46.235Z,8.67
2017-06-24T21:06:16.946Z,9.50
2017-06-24T21:08:44.455Z,9.80
2017-06-24T21:11:12.620Z,8.53
2017-06-24T21:13:40.597Z,8.53
2017-06-24T21:16:08.116Z,9.87
2017-06-24T21:18:36.005Z,8.20
2017-06-24T21:21:03.797Z,9.00
2017-06-24T21:23:31.563Z,8.73
2017-06-24T21:25:59.484Z,8.30
2017-06-24T21:28:27.327Z,8.60
2017-06-24T21:30:54.867Z,10.17
2017-06-24T21:33:23.035Z,9.27
2017-06-24T21:35:50.607Z,8.77
2017-06-24T21:38:18.133Z,8.57
2017-06-24T21:40:45.705Z,9.37
2017-06-24T21:43:13.279Z,8.80
2017-06-24T21:45:40.807Z,8.93
2017-06-24T21:48:08.589Z,8.23
2017-06-24T21:50:36.120Z,10.63
2017-06-24T21:53:03.652Z,9.17
2017-06-24T21:55:31.569Z,9.17
2017-06-24T21:57:59.257Z,9.43
2017-06-24T22:00:26.867Z,9.70
2017-06-24T22:02:54.723Z,10.10
2017-06-24T22:05:22.287Z,8.90
2017-06-24T22:07:49.985Z,10.80
2017-06-24T22:10:17.555Z,8.80
2017-06-24T22:12:45.756Z,8.37
2017-06-24T22:15:13.615Z,9.73
2017-06-24T22:17:41.276Z,9.90
2017-06-24T22:20:09.026Z,7.50
2017-06-24T22:22:36.783Z,9.83
2017-06-24T22:25:04.731Z,10.40
2017-06-24T22:27:32.534Z,9.90
2017-06-24T22:30:00.239Z,9.30
2017-06-24T22:32:28.004Z,9.97
2017-06-24T22:34:55.735Z,9.00
2017-06-24T22:37:23.447Z,9.20
2017-06-24T22:39:51.204Z,8.63
2017-06-24T22:42:19.040Z,8.30
2017-06-24T22:44:46.726Z,8.97
2017-06-24T22:47:14.435Z,10.53
2017-06-24T22:49:42.154Z,9.67
2017-06-24T22:52:09.800Z,9.50
2017-06-24T22:54:37.774Z,9.80
2017-06-24T22:57:05.496Z,9.50
2017-06-24T22:59:33.131Z,8.90
2017-06-24T23:02:00.824Z,10.20
2017-06-24T23:04:28.506Z,9.13
2017-06-24T23:06:56.049Z,8.80
2017-06-24T23:09:24.022Z,9.73
2017-06-24T23:11:51.713Z,10.03
2017-06-24T23:14:19.287Z,9.47
2017-06-24T23:16:46.972Z,10.10
2017-06-24T23:19:14.562Z,10.03
2017-06-24T23:21:42.245Z,9.90
2017-06-24T23:24:10.239Z,9.60
2017-06-24T23:26:38.014Z,8.90
2017-06-24T23:29:05.720Z,10.30
2017-06-24T23:31:33.913Z,10.83
2017-06-24T23:34:01.773Z,9.40
2017-06-24T23:36:29.501Z,10.03
2017-06-24T23:38:57.374Z,10.40
2017-06-24T23:41:25.157Z,11.10
2017-06-24T23:43:52.784Z,11.03
2017-06-24T23:46:20.933Z,11.60
2017-06-24T23:48:48.644Z,10.80
2017-06-24T23:51:16.355Z,10.93
2017-06-24T23:53:44.127Z,11.20
2017-06-24T23:56:11.822Z,9.97
2017-06-24T23:58:39.497Z,10.53
